weather.gov     
National Weather Service

Terminal Aerodrome Forecast
NWS Homepage
This page is being discontinued on March 12, 2014.
The same data is available at this site. Please update your bookmarks.
Thank you, and we apologize for the inconvenience.
Please send an email to SR-SRH.Webmaster@noaa.gov with any concerns.


Current Version
Previous Version:    01  02  03  04  05  06  07  08  09  10  11  12  13  14  15  16  17  18  19  20  21  22  23  24  25  26  27  
[Printable]
204
FTUS46 KOTX 251129
TAFGEG
TAF
KGEG 251129Z 2512/2612 06007KT P6SM BKN240
     FM251800 12008KT P6SM SCT080 BKN200
     FM252100 18012G18KT P6SM VCSH SCT040 BKN080 OVC120
     FM260400 20018G26KT P6SM -SHRA SCT030 BKN050 OVC080
     FM260800 21025G38KT P6SM BKN080=




204
FTUS46 KOTX 251129
TAFGEG
TAF
KGEG 251129Z 2512/2612 06007KT P6SM BKN240
     FM251800 12008KT P6SM SCT080 BKN200
     FM252100 18012G18KT P6SM VCSH SCT040 BKN080 OVC120
     FM260400 20018G26KT P6SM -SHRA SCT030 BKN050 OVC080
     FM260800 21025G38KT P6SM BKN080=


U.S. Dept. of Commerce
NOAA National Weather Service
1325 East West Highway
Silver Spring, MD 20910
E-mail: w-nws.webmaster@noaa.gov
Page last modified: May 16, 2007
NATIONAL WEATHER SERVICE: for Safety, for Work, for Fun - FOR LIFE